sensor_id;sensor_type;location;lat;lon;timestamp;temperature;humidity
14755;DHT22;7469;50.906;6.952;2024-01-30T00:02:26;8.20;99.90
14755;DHT22;7469;50.906;6.952;2024-01-30T00:04:54;8.20;99.90
14755;DHT22;7469;50.906;6.952;2024-01-30T00:07:21;8.20;99.90
14755;DHT22;7469;50.906;6.952;2024-01-30T00:09:50;8.20;99.90
14755;DHT22;7469;50.906;6.952;2024-01-30T00:12:18;8.10;99.90
14755;DHT22;7469;50.906;6.952;2024-01-30T00:14:47;8.10;99.90
14755;DHT22;7469;50.906;6.952;2024-01-30T00:17:20;8.00;99.90
14755;DHT22;7469;50.906;6.952;2024-01-30T00:19:48;8.00;99.90
14755;DHT22;7469;50.906;6.952;2024-01-30T00:22:16;8.00;99.90
14755;DHT22;7469;50.906;6.952;2024-01-30T00:24:44;8.00;99.90
14755;DHT22;7469;50.906;6.952;2024-01-30T00:27:12;7.90;99.90
14755;DHT22;7469;50.906;6.952;2024-01-30T00:29:40;7.90;99.90
14755;DHT22;7469;50.906;6.952;2024-01-30T00:32:09;7.90;99.90
14755;DHT22;7469;50.906;6.952;2024-01-30T00:34:37;7.90;99.90
14755;DHT22;7469;50.906;6.952;2024-01-30T00:37:05;7.90;99.90
14755;DHT22;7469;50.906;6.952;2024-01-30T00:39:33;7.90;99.90
14755;DHT22;7469;50.906;6.952;2024-01-30T00:42:01;7.90;99.90
14755;DHT22;7469;50.906;6.952;2024-01-30T00:44:29;7.90;99.90
14755;DHT22;7469;50.906;6.952;2024-01-30T00:46:57;7.90;99.90
14755;DHT22;7469;50.906;6.952;2024-01-30T00:49:26;7.90;99.90
14755;DHT22;7469;50.906;6.952;2024-01-30T00:51:55;7.90;99.90
14755;DHT22;7469;50.906;6.952;2024-01-30T00:54:22;7.90;99.90
14755;DHT22;7469;50.906;6.952;2024-01-30T00:56:50;7.90;99.90
14755;DHT22;7469;50.906;6.952;2024-01-30T00:59:18;7.90;99.90
14755;DHT22;7469;50.906;6.952;2024-01-30T01:01:46;7.90;99.90
14755;DHT22;7469;50.906;6.952;2024-01-30T01:04:14;7.90;99.90
14755;DHT22;7469;50.906;6.952;2024-01-30T01:06:44;7.90;99.90
14755;DHT22;7469;50.906;6.952;2024-01-30T01:09:12;7.80;99.90
14755;DHT22;7469;50.906;6.952;2024-01-30T01:11:40;7.80;99.90
14755;DHT22;7469;50.906;6.952;2024-01-30T01:14:08;7.90;99.90
14755;DHT22;7469;50.906;6.952;2024-01-30T01:16:36;7.90;99.90
14755;DHT22;7469;50.906;6.952;2024-01-30T01:19:04;7.90;99.90
14755;DHT22;7469;50.906;6.952;2024-01-30T01:21:32;7.90;99.90
14755;DHT22;7469;50.906;6.952;2024-01-30T01:24:01;7.90;99.90
14755;DHT22;7469;50.906;6.952;2024-01-30T01:26:29;7.90;99.90
14755;DHT22;7469;50.906;6.952;2024-01-30T01:28:57;7.90;99.90
14755;DHT22;7469;50.906;6.952;2024-01-30T01:31:25;7.90;99.90
14755;DHT22;7469;50.906;6.952;2024-01-30T01:33:56;7.90;99.90
14755;DHT22;7469;50.906;6.952;2024-01-30T01:36:24;7.90;99.90
14755;DHT22;7469;50.906;6.952;2024-01-30T01:38:52;7.90;99.90
14755;DHT22;7469;50.906;6.952;2024-01-30T01:41:21;7.90;99.90
14755;DHT22;7469;50.906;6.952;2024-01-30T01:43:49;7.90;99.90
14755;DHT22;7469;50.906;6.952;2024-01-30T01:46:17;7.90;99.90
14755;DHT22;7469;50.906;6.952;2024-01-30T01:48:45;7.90;99.90
14755;DHT22;7469;50.906;6.952;2024-01-30T01:51:14;8.00;99.90
14755;DHT22;7469;50.906;6.952;2024-01-30T01:53:43;7.90;99.90
14755;DHT22;7469;50.906;6.952;2024-01-30T01:56:12;7.90;99.90
14755;DHT22;7469;50.906;6.952;2024-01-30T01:58:41;7.90;99.90
14755;DHT22;7469;50.906;6.952;2024-01-30T02:01:09;7.90;99.90
14755;DHT22;7469;50.906;6.952;2024-01-30T02:03:39;7.90;99.90
14755;DHT22;7469;50.906;6.952;2024-01-30T02:06:07;7.90;99.90
14755;DHT22;7469;50.906;6.952;2024-01-30T02:08:37;7.90;99.90
14755;DHT22;7469;50.906;6.952;2024-01-30T02:11:05;7.90;99.90
14755;DHT22;7469;50.906;6.952;2024-01-30T02:13:33;7.90;99.90
14755;DHT22;7469;50.906;6.952;2024-01-30T02:16:03;7.90;99.90
14755;DHT22;7469;50.906;6.952;2024-01-30T02:18:31;7.90;99.90
14755;DHT22;7469;50.906;6.952;2024-01-30T02:21:04;7.90;99.90
14755;DHT22;7469;50.906;6.952;2024-01-30T02:23:33;7.90;99.90
14755;DHT22;7469;50.906;6.952;2024-01-30T02:26:02;7.90;99.90
14755;DHT22;7469;50.906;6.952;2024-01-30T02:28:30;7.90;99.90
14755;DHT22;7469;50.906;6.952;2024-01-30T02:30:57;7.80;99.90
14755;DHT22;7469;50.906;6.952;2024-01-30T02:33:25;7.90;99.90
14755;DHT22;7469;50.906;6.952;2024-01-30T02:35:53;7.90;99.90
14755;DHT22;7469;50.906;6.952;2024-01-30T02:38:23;7.90;99.90
14755;DHT22;7469;50.906;6.952;2024-01-30T02:40:51;7.90;99.90
14755;DHT22;7469;50.906;6.952;2024-01-30T02:43:19;7.90;99.90
14755;DHT22;7469;50.906;6.952;2024-01-30T02:45:47;7.90;99.90
14755;DHT22;7469;50.906;6.952;2024-01-30T02:48:15;7.90;99.90
14755;DHT22;7469;50.906;6.952;2024-01-30T02:50:43;7.90;99.90
14755;DHT22;7469;50.906;6.952;2024-01-30T02:53:11;7.90;99.90
14755;DHT22;7469;50.906;6.952;2024-01-30T02:55:40;7.90;99.90
14755;DHT22;7469;50.906;6.952;2024-01-30T02:58:08;7.90;99.90
14755;DHT22;7469;50.906;6.952;2024-01-30T03:00:36;7.80;99.90
14755;DHT22;7469;50.906;6.952;2024-01-30T03:03:04;7.90;99.90
14755;DHT22;7469;50.906;6.952;2024-01-30T03:05:32;7.80;99.90
14755;DHT22;7469;50.906;6.952;2024-01-30T03:08:00;7.90;99.90
14755;DHT22;7469;50.906;6.952;2024-01-30T03:10:28;7.90;99.90
14755;DHT22;7469;50.906;6.952;2024-01-30T03:12:58;7.90;99.90
14755;DHT22;7469;50.906;6.952;2024-01-30T03:15:26;7.90;99.90
14755;DHT22;7469;50.906;6.952;2024-01-30T03:17:54;7.90;99.90
14755;DHT22;7469;50.906;6.952;2024-01-30T03:20:22;7.90;99.90
14755;DHT22;7469;50.906;6.952;2024-01-30T03:22:50;7.90;99.90
14755;DHT22;7469;50.906;6.952;2024-01-30T03:25:18;7.80;99.90
14755;DHT22;7469;50.906;6.952;2024-01-30T03:27:46;7.80;99.90
14755;DHT22;7469;50.906;6.952;2024-01-30T03:30:15;7.80;99.90
14755;DHT22;7469;50.906;6.952;2024-01-30T03:32:43;7.80;99.90
14755;DHT22;7469;50.906;6.952;2024-01-30T03:35:11;7.80;99.90
14755;DHT22;7469;50.906;6.952;2024-01-30T03:37:39;7.80;99.90
14755;DHT22;7469;50.906;6.952;2024-01-30T03:40:08;7.70;99.90
14755;DHT22;7469;50.906;6.952;2024-01-30T03:42:36;7.70;99.90
14755;DHT22;7469;50.906;6.952;2024-01-30T03:45:05;7.70;99.90
14755;DHT22;7469;50.906;6.952;2024-01-30T03:47:34;7.70;99.90
14755;DHT22;7469;50.906;6.952;2024-01-30T03:50:03;7.70;99.90
14755;DHT22;7469;50.906;6.952;2024-01-30T03:52:31;7.70;99.90
14755;DHT22;7469;50.906;6.952;2024-01-30T03:54:59;7.60;99.90
14755;DHT22;7469;50.906;6.952;2024-01-30T03:57:27;7.60;99.90
14755;DHT22;7469;50.906;6.952;2024-01-30T03:59:55;7.60;99.90
14755;DHT22;7469;50.906;6.952;2024-01-30T04:02:26;7.60;99.90
14755;DHT22;7469;50.906;6.952;2024-01-30T04:04:56;7.60;99.90
14755;DHT22;7469;50.906;6.952;2024-01-30T04:07:24;7.60;99.90
14755;DHT22;7469;50.906;6.952;2024-01-30T04:09:52;7.60;99.90
14755;DHT22;7469;50.906;6.952;2024-01-30T04:12:20;7.50;99.90
14755;DHT22;7469;50.906;6.952;2024-01-30T04:14:48;7.50;99.90
14755;DHT22;7469;50.906;6.952;2024-01-30T04:17:16;7.50;99.90
14755;DHT22;7469;50.906;6.952;2024-01-30T04:19:43;7.50;99.90
14755;DHT22;7469;50.906;6.952;2024-01-30T04:22:13;7.50;99.90
14755;DHT22;7469;50.906;6.952;2024-01-30T04:24:41;7.50;99.90
14755;DHT22;7469;50.906;6.952;2024-01-30T04:27:09;7.50;99.90
14755;DHT22;7469;50.906;6.952;2024-01-30T04:29:37;7.50;99.90
14755;DHT22;7469;50.906;6.952;2024-01-30T04:32:05;7.50;99.90
14755;DHT22;7469;50.906;6.952;2024-01-30T04:34:33;7.50;99.90
14755;DHT22;7469;50.906;6.952;2024-01-30T04:37:01;7.50;99.90
14755;DHT22;7469;50.906;6.952;2024-01-30T04:39:33;7.60;99.90
14755;DHT22;7469;50.906;6.952;2024-01-30T04:42:01;7.60;99.90
14755;DHT22;7469;50.906;6.952;2024-01-30T04:44:31;7.60;99.90
14755;DHT22;7469;50.906;6.952;2024-01-30T04:46:59;7.60;99.90
14755;DHT22;7469;50.906;6.952;2024-01-30T04:49:28;7.60;99.90
14755;DHT22;7469;50.906;6.952;2024-01-30T04:51:56;7.60;99.90
14755;DHT22;7469;50.906;6.952;2024-01-30T04:54:25;7.50;99.90
14755;DHT22;7469;50.906;6.952;2024-01-30T04:56:55;7.50;99.90
14755;DHT22;7469;50.906;6.952;2024-01-30T04:59:23;7.50;99.90
14755;DHT22;7469;50.906;6.952;2024-01-30T05:01:50;7.50;99.90
14755;DHT22;7469;50.906;6.952;2024-01-30T05:04:18;7.50;99.90
14755;DHT22;7469;50.906;6.952;2024-01-30T05:06:47;7.50;99.90
14755;DHT22;7469;50.906;6.952;2024-01-30T05:09:15;7.40;99.90
14755;DHT22;7469;50.906;6.952;2024-01-30T05:11:42;7.40;99.90
14755;DHT22;7469;50.906;6.952;2024-01-30T05:14:12;7.40;99.90
14755;DHT22;7469;50.906;6.952;2024-01-30T05:16:41;7.40;99.90
14755;DHT22;7469;50.906;6.952;2024-01-30T05:19:13;7.40;99.90
14755;DHT22;7469;50.906;6.952;2024-01-30T05:21:41;7.30;99.90
14755;DHT22;7469;50.906;6.952;2024-01-30T05:24:10;7.30;99.90
14755;DHT22;7469;50.906;6.952;2024-01-30T05:26:38;7.30;99.90
14755;DHT22;7469;50.906;6.952;2024-01-30T05:29:06;7.30;99.90
14755;DHT22;7469;50.906;6.952;2024-01-30T05:31:36;7.30;99.90
14755;DHT22;7469;50.906;6.952;2024-01-30T05:34:04;7.20;99.90
14755;DHT22;7469;50.906;6.952;2024-01-30T05:36:33;7.30;99.90
14755;DHT22;7469;50.906;6.952;2024-01-30T05:39:01;7.30;99.90
14755;DHT22;7469;50.906;6.952;2024-01-30T05:41:32;7.20;99.90
14755;DHT22;7469;50.906;6.952;2024-01-30T05:44:00;7.20;99.90
14755;DHT22;7469;50.906;6.952;2024-01-30T05:46:28;7.20;99.90
14755;DHT22;7469;50.906;6.952;2024-01-30T05:48:57;7.10;99.90
14755;DHT22;7469;50.906;6.952;2024-01-30T05:51:25;7.10;99.90
14755;DHT22;7469;50.906;6.952;2024-01-30T05:53:55;7.10;99.90
14755;DHT22;7469;50.906;6.952;2024-01-30T05:56:22;7.10;99.90
14755;DHT22;7469;50.906;6.952;2024-01-30T05:58:50;7.10;99.90
14755;DHT22;7469;50.906;6.952;2024-01-30T06:01:18;7.10;99.90
14755;DHT22;7469;50.906;6.952;2024-01-30T06:03:47;7.10;99.90
14755;DHT22;7469;50.906;6.952;2024-01-30T06:06:16;7.10;99.90
14755;DHT22;7469;50.906;6.952;2024-01-30T06:08:44;7.10;99.90
14755;DHT22;7469;50.906;6.952;2024-01-30T06:11:12;7.10;99.90
14755;DHT22;7469;50.906;6.952;2024-01-30T06:13:40;7.10;99.90
14755;DHT22;7469;50.906;6.952;2024-01-30T06:16:10;7.00;99.90
14755;DHT22;7469;50.906;6.952;2024-01-30T06:18:38;7.10;99.90
14755;DHT22;7469;50.906;6.952;2024-01-30T06:21:06;7.00;99.90
14755;DHT22;7469;50.906;6.952;2024-01-30T06:23:39;7.00;99.90
14755;DHT22;7469;50.906;6.952;2024-01-30T06:26:07;7.00;99.90
14755;DHT22;7469;50.906;6.952;2024-01-30T06:28:35;7.00;99.90
14755;DHT22;7469;50.906;6.952;2024-01-30T06:31:03;7.10;99.90
14755;DHT22;7469;50.906;6.952;2024-01-30T06:33:31;7.00;99.90
14755;DHT22;7469;50.906;6.952;2024-01-30T06:35:59;7.00;99.90
14755;DHT22;7469;50.906;6.952;2024-01-30T06:38:27;7.00;99.90
14755;DHT22;7469;50.906;6.952;2024-01-30T06:40:56;7.00;99.90
14755;DHT22;7469;50.906;6.952;2024-01-30T06:43:24;7.00;99.90
14755;DHT22;7469;50.906;6.952;2024-01-30T06:45:52;7.00;99.90
14755;DHT22;7469;50.906;6.952;2024-01-30T06:48:20;7.10;99.90
14755;DHT22;7469;50.906;6.952;2024-01-30T06:50:48;7.10;99.90
14755;DHT22;7469;50.906;6.952;2024-01-30T06:53:17;7.10;99.90
14755;DHT22;7469;50.906;6.952;2024-01-30T06:55:45;7.10;99.90
14755;DHT22;7469;50.906;6.952;2024-01-30T06:58:14;7.10;99.90
14755;DHT22;7469;50.906;6.952;2024-01-30T07:00:42;7.10;99.90
14755;DHT22;7469;50.906;6.952;2024-01-30T07:03:10;7.10;99.90
14755;DHT22;7469;50.906;6.952;2024-01-30T07:05:38;7.10;99.90
14755;DHT22;7469;50.906;6.952;2024-01-30T07:08:06;7.10;99.90
14755;DHT22;7469;50.906;6.952;2024-01-30T07:10:34;7.10;99.90
14755;DHT22;7469;50.906;6.952;2024-01-30T07:13:03;7.10;99.90
14755;DHT22;7469;50.906;6.952;2024-01-30T07:15:33;7.10;99.90
14755;DHT22;7469;50.906;6.952;2024-01-30T07:18:03;7.10;99.90
14755;DHT22;7469;50.906;6.952;2024-01-30T07:20:32;7.10;99.90
14755;DHT22;7469;50.906;6.952;2024-01-30T07:23:00;7.10;99.90
14755;DHT22;7469;50.906;6.952;2024-01-30T07:25:28;7.10;99.90
14755;DHT22;7469;50.906;6.952;2024-01-30T07:27:57;7.10;99.90
14755;DHT22;7469;50.906;6.952;2024-01-30T07:30:25;7.00;99.90
14755;DHT22;7469;50.906;6.952;2024-01-30T07:32:54;7.10;99.90
14755;DHT22;7469;50.906;6.952;2024-01-30T07:35:22;7.10;99.90
14755;DHT22;7469;50.906;6.952;2024-01-30T07:37:50;7.10;99.90
14755;DHT22;7469;50.906;6.952;2024-01-30T07:40:18;7.10;99.90
14755;DHT22;7469;50.906;6.952;2024-01-30T07:42:48;7.10;99.90
14755;DHT22;7469;50.906;6.952;2024-01-30T07:45:16;7.20;99.90
14755;DHT22;7469;50.906;6.952;2024-01-30T07:47:48;7.20;99.90
14755;DHT22;7469;50.906;6.952;2024-01-30T07:50:18;7.20;99.90
14755;DHT22;7469;50.906;6.952;2024-01-30T07:52:46;7.20;99.90
14755;DHT22;7469;50.906;6.952;2024-01-30T07:55:17;7.20;99.90
14755;DHT22;7469;50.906;6.952;2024-01-30T07:57:46;7.20;99.90
14755;DHT22;7469;50.906;6.952;2024-01-30T08:00:18;7.30;99.90
14755;DHT22;7469;50.906;6.952;2024-01-30T08:02:46;7.30;99.90
14755;DHT22;7469;50.906;6.952;2024-01-30T08:05:14;7.30;99.90
14755;DHT22;7469;50.906;6.952;2024-01-30T08:07:44;7.30;99.90
14755;DHT22;7469;50.906;6.952;2024-01-30T08:10:12;7.30;99.90
14755;DHT22;7469;50.906;6.952;2024-01-30T08:12:41;7.30;99.90
14755;DHT22;7469;50.906;6.952;2024-01-30T08:15:10;7.40;99.90
14755;DHT22;7469;50.906;6.952;2024-01-30T08:17:38;7.40;99.90
14755;DHT22;7469;50.906;6.952;2024-01-30T08:20:07;7.40;99.90
14755;DHT22;7469;50.906;6.952;2024-01-30T08:22:38;7.40;99.90
14755;DHT22;7469;50.906;6.952;2024-01-30T08:25:08;7.40;99.90
14755;DHT22;7469;50.906;6.952;2024-01-30T08:27:37;7.50;99.90
14755;DHT22;7469;50.906;6.952;2024-01-30T08:30:06;7.50;99.90
14755;DHT22;7469;50.906;6.952;2024-01-30T08:32:35;7.40;99.90
14755;DHT22;7469;50.906;6.952;2024-01-30T08:35:03;7.50;99.90
14755;DHT22;7469;50.906;6.952;2024-01-30T08:37:31;7.50;99.90
14755;DHT22;7469;50.906;6.952;2024-01-30T08:39:59;7.50;99.90
14755;DHT22;7469;50.906;6.952;2024-01-30T08:42:30;7.50;99.90
14755;DHT22;7469;50.906;6.952;2024-01-30T08:44:58;7.50;99.90
14755;DHT22;7469;50.906;6.952;2024-01-30T08:47:26;7.60;99.90
14755;DHT22;7469;50.906;6.952;2024-01-30T08:49:54;7.60;99.90
14755;DHT22;7469;50.906;6.952;2024-01-30T08:52:22;7.60;99.90
14755;DHT22;7469;50.906;6.952;2024-01-30T08:54:50;7.70;99.90
14755;DHT22;7469;50.906;6.952;2024-01-30T08:57:18;7.80;99.90
14755;DHT22;7469;50.906;6.952;2024-01-30T08:59:48;7.80;99.90
14755;DHT22;7469;50.906;6.952;2024-01-30T09:02:16;7.90;99.90
14755;DHT22;7469;50.906;6.952;2024-01-30T09:04:45;7.90;99.90
14755;DHT22;7469;50.906;6.952;2024-01-30T09:07:13;8.00;99.90
14755;DHT22;7469;50.906;6.952;2024-01-30T09:09:41;8.00;99.90
14755;DHT22;7469;50.906;6.952;2024-01-30T09:12:10;8.10;99.90
14755;DHT22;7469;50.906;6.952;2024-01-30T09:14:39;8.10;99.90
14755;DHT22;7469;50.906;6.952;2024-01-30T09:17:09;8.20;99.90
14755;DHT22;7469;50.906;6.952;2024-01-30T09:19:37;8.30;99.90
14755;DHT22;7469;50.906;6.952;2024-01-30T09:22:05;8.30;99.90
14755;DHT22;7469;50.906;6.952;2024-01-30T09:24:33;8.40;99.90
14755;DHT22;7469;50.906;6.952;2024-01-30T09:27:01;8.50;99.90
14755;DHT22;7469;50.906;6.952;2024-01-30T09:29:29;8.60;99.90
14755;DHT22;7469;50.906;6.952;2024-01-30T09:31:57;8.70;99.90
14755;DHT22;7469;50.906;6.952;2024-01-30T09:34:27;8.90;99.90
14755;DHT22;7469;50.906;6.952;2024-01-30T09:36:55;9.20;99.90
14755;DHT22;7469;50.906;6.952;2024-01-30T09:39:23;9.30;99.90
14755;DHT22;7469;50.906;6.952;2024-01-30T09:42:00;9.40;99.90
14755;DHT22;7469;50.906;6.952;2024-01-30T09:44:29;9.70;99.90
14755;DHT22;7469;50.906;6.952;2024-01-30T09:46:58;9.90;99.90
14755;DHT22;7469;50.906;6.952;2024-01-30T09:49:32;10.00;99.90
14755;DHT22;7469;50.906;6.952;2024-01-30T09:52:01;10.10;99.90
14755;DHT22;7469;50.906;6.952;2024-01-30T09:54:30;10.20;99.90
14755;DHT22;7469;50.906;6.952;2024-01-30T09:57:03;10.20;99.90
14755;DHT22;7469;50.906;6.952;2024-01-30T09:59:32;10.30;99.90
14755;DHT22;7469;50.906;6.952;2024-01-30T10:02:00;10.30;99.90
14755;DHT22;7469;50.906;6.952;2024-01-30T10:04:32;10.20;99.90
14755;DHT22;7469;50.906;6.952;2024-01-30T10:07:01;10.20;99.90
14755;DHT22;7469;50.906;6.952;2024-01-30T10:09:32;10.20;99.90
14755;DHT22;7469;50.906;6.952;2024-01-30T10:12:01;10.20;99.90
14755;DHT22;7469;50.906;6.952;2024-01-30T10:14:30;10.20;99.90
14755;DHT22;7469;50.906;6.952;2024-01-30T10:16:59;10.20;99.90
14755;DHT22;7469;50.906;6.952;2024-01-30T10:19:27;10.10;99.90
14755;DHT22;7469;50.906;6.952;2024-01-30T10:21:56;10.10;99.90
14755;DHT22;7469;50.906;6.952;2024-01-30T10:24:25;10.10;99.90
14755;DHT22;7469;50.906;6.952;2024-01-30T10:26:53;10.20;99.90
14755;DHT22;7469;50.906;6.952;2024-01-30T10:29:21;10.20;99.90
14755;DHT22;7469;50.906;6.952;2024-01-30T10:31:58;10.20;99.90
14755;DHT22;7469;50.906;6.952;2024-01-30T10:34:26;10.20;99.90
14755;DHT22;7469;50.906;6.952;2024-01-30T10:37:00;10.20;99.90
14755;DHT22;7469;50.906;6.952;2024-01-30T10:39:37;10.20;99.90
14755;DHT22;7469;50.906;6.952;2024-01-30T10:42:07;10.20;99.90
14755;DHT22;7469;50.906;6.952;2024-01-30T10:44:44;10.20;99.90
14755;DHT22;7469;50.906;6.952;2024-01-30T10:47:18;10.30;99.90
14755;DHT22;7469;50.906;6.952;2024-01-30T10:49:48;10.20;99.90
14755;DHT22;7469;50.906;6.952;2024-01-30T10:52:18;10.30;99.90
14755;DHT22;7469;50.906;6.952;2024-01-30T10:54:47;10.30;99.90
14755;DHT22;7469;50.906;6.952;2024-01-30T10:57:17;10.30;99.90
14755;DHT22;7469;50.906;6.952;2024-01-30T10:59:45;10.40;99.90
14755;DHT22;7469;50.906;6.952;2024-01-30T11:02:14;10.40;99.90
14755;DHT22;7469;50.906;6.952;2024-01-30T11:04:42;10.40;99.90
14755;DHT22;7469;50.906;6.952;2024-01-30T11:07:15;10.40;99.90
14755;DHT22;7469;50.906;6.952;2024-01-30T11:09:51;10.50;99.90
14755;DHT22;7469;50.906;6.952;2024-01-30T11:12:22;10.50;99.90
14755;DHT22;7469;50.906;6.952;2024-01-30T11:15:01;10.50;99.90
14755;DHT22;7469;50.906;6.952;2024-01-30T11:17:43;10.50;99.90
14755;DHT22;7469;50.906;6.952;2024-01-30T11:20:12;10.50;99.90
14755;DHT22;7469;50.906;6.952;2024-01-30T11:22:44;10.60;99.90
14755;DHT22;7469;50.906;6.952;2024-01-30T11:25:15;10.70;99.90
14755;DHT22;7469;50.906;6.952;2024-01-30T11:27:44;10.70;99.90
14755;DHT22;7469;50.906;6.952;2024-01-30T11:30:21;10.80;99.90
14755;DHT22;7469;50.906;6.952;2024-01-30T11:32:59;10.90;99.90
14755;DHT22;7469;50.906;6.952;2024-01-30T11:35:30;10.90;99.90
14755;DHT22;7469;50.906;6.952;2024-01-30T11:37:58;11.00;99.90
14755;DHT22;7469;50.906;6.952;2024-01-30T11:40:29;11.00;99.90
14755;DHT22;7469;50.906;6.952;2024-01-30T11:42:59;11.10;99.90
14755;DHT22;7469;50.906;6.952;2024-01-30T11:45:28;11.10;99.90
14755;DHT22;7469;50.906;6.952;2024-01-30T11:47:56;11.20;99.90
14755;DHT22;7469;50.906;6.952;2024-01-30T11:50:27;11.30;99.90
14755;DHT22;7469;50.906;6.952;2024-01-30T11:52:55;11.20;99.90
14755;DHT22;7469;50.906;6.952;2024-01-30T11:55:23;11.30;99.90
14755;DHT22;7469;50.906;6.952;2024-01-30T11:57:56;11.30;99.90
14755;DHT22;7469;50.906;6.952;2024-01-30T12:00:25;11.30;99.90
14755;DHT22;7469;50.906;6.952;2024-01-30T12:02:54;11.40;99.90
14755;DHT22;7469;50.906;6.952;2024-01-30T12:05:24;11.50;99.90
14755;DHT22;7469;50.906;6.952;2024-01-30T12:07:52;11.50;99.90
14755;DHT22;7469;50.906;6.952;2024-01-30T12:10:21;11.50;99.90
14755;DHT22;7469;50.906;6.952;2024-01-30T12:12:50;11.50;99.90
14755;DHT22;7469;50.906;6.952;2024-01-30T12:15:21;11.50;99.90
14755;DHT22;7469;50.906;6.952;2024-01-30T12:17:49;11.50;99.90
14755;DHT22;7469;50.906;6.952;2024-01-30T12:20:19;11.50;99.90
14755;DHT22;7469;50.906;6.952;2024-01-30T12:22:49;11.50;99.90
14755;DHT22;7469;50.906;6.952;2024-01-30T12:25:19;11.50;99.90
14755;DHT22;7469;50.906;6.952;2024-01-30T12:27:50;11.60;99.90
14755;DHT22;7469;50.906;6.952;2024-01-30T12:30:20;11.60;99.90
14755;DHT22;7469;50.906;6.952;2024-01-30T12:32:50;11.60;99.90
14755;DHT22;7469;50.906;6.952;2024-01-30T12:35:19;11.70;99.90
14755;DHT22;7469;50.906;6.952;2024-01-30T12:37:49;11.70;99.90
14755;DHT22;7469;50.906;6.952;2024-01-30T12:40:17;11.80;99.90
14755;DHT22;7469;50.906;6.952;2024-01-30T12:42:46;11.80;99.90
14755;DHT22;7469;50.906;6.952;2024-01-30T12:45:16;11.80;99.90
14755;DHT22;7469;50.906;6.952;2024-01-30T12:47:48;11.80;99.90
14755;DHT22;7469;50.906;6.952;2024-01-30T12:50:16;11.80;99.90
14755;DHT22;7469;50.906;6.952;2024-01-30T12:52:45;11.90;99.90
14755;DHT22;7469;50.906;6.952;2024-01-30T12:55:16;12.00;99.90
14755;DHT22;7469;50.906;6.952;2024-01-30T12:57:44;12.10;99.90
14755;DHT22;7469;50.906;6.952;2024-01-30T13:00:12;12.10;99.90
14755;DHT22;7469;50.906;6.952;2024-01-30T13:02:40;12.10;99.90
14755;DHT22;7469;50.906;6.952;2024-01-30T13:05:13;12.10;99.90
14755;DHT22;7469;50.906;6.952;2024-01-30T13:07:41;12.10;99.90
14755;DHT22;7469;50.906;6.952;2024-01-30T13:10:09;12.10;99.90
14755;DHT22;7469;50.906;6.952;2024-01-30T13:12:37;12.20;99.90
14755;DHT22;7469;50.906;6.952;2024-01-30T13:15:06;12.20;99.90
14755;DHT22;7469;50.906;6.952;2024-01-30T13:17:34;12.30;99.90
14755;DHT22;7469;50.906;6.952;2024-01-30T13:20:03;12.30;99.90
14755;DHT22;7469;50.906;6.952;2024-01-30T13:22:39;12.40;99.90
14755;DHT22;7469;50.906;6.952;2024-01-30T13:25:07;12.40;99.90
14755;DHT22;7469;50.906;6.952;2024-01-30T13:27:35;12.40;99.90
14755;DHT22;7469;50.906;6.952;2024-01-30T13:30:06;12.40;99.90
14755;DHT22;7469;50.906;6.952;2024-01-30T13:32:34;12.40;99.90
14755;DHT22;7469;50.906;6.952;2024-01-30T13:35:03;12.50;99.90
14755;DHT22;7469;50.906;6.952;2024-01-30T13:37:31;12.40;99.90
14755;DHT22;7469;50.906;6.952;2024-01-30T13:40:01;12.40;99.90
14755;DHT22;7469;50.906;6.952;2024-01-30T13:42:32;12.40;99.90
14755;DHT22;7469;50.906;6.952;2024-01-30T13:45:00;12.40;99.90
14755;DHT22;7469;50.906;6.952;2024-01-30T13:47:29;12.40;99.90
14755;DHT22;7469;50.906;6.952;2024-01-30T13:49:57;12.40;99.90
14755;DHT22;7469;50.906;6.952;2024-01-30T13:52:25;12.40;99.90
14755;DHT22;7469;50.906;6.952;2024-01-30T13:55:05;12.40;99.90
14755;DHT22;7469;50.906;6.952;2024-01-30T13:57:33;12.40;99.90
14755;DHT22;7469;50.906;6.952;2024-01-30T14:00:03;12.40;99.90
14755;DHT22;7469;50.906;6.952;2024-01-30T14:02:34;12.40;99.90
14755;DHT22;7469;50.906;6.952;2024-01-30T14:05:02;12.30;99.90
14755;DHT22;7469;50.906;6.952;2024-01-30T14:07:31;12.30;99.90
14755;DHT22;7469;50.906;6.952;2024-01-30T14:10:00;12.30;99.90
14755;DHT22;7469;50.906;6.952;2024-01-30T14:12:32;12.30;99.90
14755;DHT22;7469;50.906;6.952;2024-01-30T14:14:59;12.30;99.90
14755;DHT22;7469;50.906;6.952;2024-01-30T14:17:32;12.30;99.90
14755;DHT22;7469;50.906;6.952;2024-01-30T14:20:00;12.30;99.90
14755;DHT22;7469;50.906;6.952;2024-01-30T14:22:29;12.30;99.90
14755;DHT22;7469;50.906;6.952;2024-01-30T14:24:57;12.30;99.90
14755;DHT22;7469;50.906;6.952;2024-01-30T14:27:26;12.30;99.90
14755;DHT22;7469;50.906;6.952;2024-01-30T14:29:55;12.20;99.90
14755;DHT22;7469;50.906;6.952;2024-01-30T14:32:23;12.20;99.90
14755;DHT22;7469;50.906;6.952;2024-01-30T14:34:51;12.20;99.90
14755;DHT22;7469;50.906;6.952;2024-01-30T14:37:20;12.20;99.90
14755;DHT22;7469;50.906;6.952;2024-01-30T14:39:49;12.20;99.90
14755;DHT22;7469;50.906;6.952;2024-01-30T14:42:17;12.20;99.90
14755;DHT22;7469;50.906;6.952;2024-01-30T14:44:45;12.20;99.90
14755;DHT22;7469;50.906;6.952;2024-01-30T14:47:14;12.20;99.90
14755;DHT22;7469;50.906;6.952;2024-01-30T14:49:42;12.20;99.90
14755;DHT22;7469;50.906;6.952;2024-01-30T14:52:10;12.20;99.90
14755;DHT22;7469;50.906;6.952;2024-01-30T14:54:38;12.20;99.90
14755;DHT22;7469;50.906;6.952;2024-01-30T14:57:07;12.20;99.90
14755;DHT22;7469;50.906;6.952;2024-01-30T14:59:35;12.20;99.90
14755;DHT22;7469;50.906;6.952;2024-01-30T15:02:03;12.30;99.90
14755;DHT22;7469;50.906;6.952;2024-01-30T15:04:33;12.30;99.90
14755;DHT22;7469;50.906;6.952;2024-01-30T15:07:01;12.20;99.90
14755;DHT22;7469;50.906;6.952;2024-01-30T15:09:29;12.30;99.90
14755;DHT22;7469;50.906;6.952;2024-01-30T15:11:59;12.30;99.90
14755;DHT22;7469;50.906;6.952;2024-01-30T15:14:27;12.30;99.90
14755;DHT22;7469;50.906;6.952;2024-01-30T15:16:55;12.30;99.90
14755;DHT22;7469;50.906;6.952;2024-01-30T15:19:24;12.30;99.90
14755;DHT22;7469;50.906;6.952;2024-01-30T15:21:53;12.30;99.90
14755;DHT22;7469;50.906;6.952;2024-01-30T15:24:21;12.30;99.90
14755;DHT22;7469;50.906;6.952;2024-01-30T15:26:51;12.30;99.90
14755;DHT22;7469;50.906;6.952;2024-01-30T15:29:19;12.40;99.90
14755;DHT22;7469;50.906;6.952;2024-01-30T15:31:49;12.30;99.90
14755;DHT22;7469;50.906;6.952;2024-01-30T15:34:17;12.40;99.90
14755;DHT22;7469;50.906;6.952;2024-01-30T15:36:45;12.40;99.90
14755;DHT22;7469;50.906;6.952;2024-01-30T15:39:15;12.40;99.90
14755;DHT22;7469;50.906;6.952;2024-01-30T15:41:44;12.40;99.90
14755;DHT22;7469;50.906;6.952;2024-01-30T15:44:12;12.30;99.90
14755;DHT22;7469;50.906;6.952;2024-01-30T15:46:40;12.30;99.90
14755;DHT22;7469;50.906;6.952;2024-01-30T15:49:08;12.30;99.90
14755;DHT22;7469;50.906;6.952;2024-01-30T15:51:36;12.30;99.90
14755;DHT22;7469;50.906;6.952;2024-01-30T15:54:04;12.30;99.90
14755;DHT22;7469;50.906;6.952;2024-01-30T15:56:33;12.30;99.90
14755;DHT22;7469;50.906;6.952;2024-01-30T15:59:01;12.20;99.90
14755;DHT22;7469;50.906;6.952;2024-01-30T16:01:29;12.30;99.90
14755;DHT22;7469;50.906;6.952;2024-01-30T16:03:57;12.30;99.90
14755;DHT22;7469;50.906;6.952;2024-01-30T16:06:25;12.30;99.90